createdAt,value
2023-04-26T00:00:14.545Z,3.72
2023-04-26T00:02:41.990Z,3.40
2023-04-26T00:05:10.058Z,4.18
2023-04-26T00:07:40.406Z,3.97
2023-04-26T00:10:08.884Z,3.72
2023-04-26T00:12:37.058Z,4.25
2023-04-26T00:15:05.202Z,4.22
2023-04-26T00:17:32.950Z,4.35
2023-04-26T00:20:00.585Z,4.05
2023-04-26T00:22:28.057Z,4.68
2023-04-26T00:24:55.413Z,3.95
2023-04-26T00:27:22.778Z,4.80
2023-04-26T00:29:50.101Z,4.60
2023-04-26T00:32:17.457Z,4.03
2023-04-26T00:34:44.815Z,4.05
2023-04-26T00:37:12.168Z,4.47
2023-04-26T00:39:39.519Z,4.38
2023-04-26T00:42:08.094Z,4.35
2023-04-26T00:44:35.466Z,3.30
2023-04-26T00:47:03.264Z,3.70
2023-04-26T00:49:31.131Z,3.15
2023-04-26T00:51:58.690Z,3.58
2023-04-26T00:54:26.505Z,3.30
2023-04-26T00:56:53.857Z,3.13
2023-04-26T00:59:21.680Z,3.20
2023-04-26T01:01:49.266Z,3.25
2023-04-26T01:04:18.092Z,3.22
2023-04-26T01:06:48.529Z,3.20
2023-04-26T01:09:16.464Z,2.90
2023-04-26T01:11:44.555Z,3.40
2023-04-26T01:14:12.115Z,2.95
2023-04-26T01:16:40.946Z,2.80
2023-04-26T01:19:15.298Z,3.35
2023-04-26T01:21:43.022Z,2.97
2023-04-26T01:24:11.870Z,3.22
2023-04-26T01:26:45.716Z,3.45
2023-04-26T01:29:21.228Z,3.55
2023-04-26T01:31:49.181Z,3.38
2023-04-26T01:34:16.830Z,3.60
2023-04-26T01:36:44.207Z,3.33
2023-04-26T01:39:11.857Z,3.30
2023-04-26T01:41:39.228Z,3.58
2023-04-26T01:44:06.768Z,3.15
2023-04-26T01:46:34.237Z,4.22
2023-04-26T01:49:01.722Z,3.13
2023-04-26T01:51:29.060Z,3.35
2023-04-26T01:53:56.435Z,3.55
2023-04-26T01:56:24.897Z,3.70
2023-04-26T01:58:52.560Z,3.75
2023-04-26T02:01:20.191Z,3.42
2023-04-26T02:03:47.620Z,3.72
2023-04-26T02:06:15.115Z,4.30
2023-04-26T02:08:42.445Z,3.58
2023-04-26T02:11:10.138Z,3.63
2023-04-26T02:13:37.924Z,4.35
2023-04-26T02:16:05.682Z,3.58
2023-04-26T02:18:33.317Z,3.90
2023-04-26T02:21:00.904Z,3.67
2023-04-26T02:23:28.341Z,3.50
2023-04-26T02:25:55.717Z,3.90
2023-04-26T02:28:23.086Z,3.83
2023-04-26T02:30:50.843Z,3.75
2023-04-26T02:33:18.165Z,3.78
2023-04-26T02:35:45.680Z,4.40
2023-04-26T02:38:13.060Z,3.92
2023-04-26T02:40:40.426Z,4.68
2023-04-26T02:43:08.065Z,4.45
2023-04-26T02:45:35.364Z,3.75
2023-04-26T02:48:02.751Z,4.32
2023-04-26T02:50:30.162Z,4.60
2023-04-26T02:52:57.473Z,3.88
2023-04-26T02:55:24.814Z,4.10
2023-04-26T02:57:52.635Z,4.22
2023-04-26T03:00:22.161Z,4.57
2023-04-26T03:02:49.740Z,4.18
2023-04-26T03:05:17.541Z,3.85
2023-04-26T03:07:44.949Z,3.83
2023-04-26T03:10:12.816Z,4.50
2023-04-26T03:12:40.367Z,4.70
2023-04-26T03:15:08.080Z,4.10
2023-04-26T03:17:35.595Z,4.80
2023-04-26T03:20:05.598Z,4.25
2023-04-26T03:22:32.947Z,4.38
2023-04-26T03:25:00.500Z,4.60
2023-04-26T03:27:27.862Z,4.88
2023-04-26T03:29:55.430Z,4.85
2023-04-26T03:32:22.882Z,5.03
2023-04-26T03:34:50.374Z,5.15
2023-04-26T03:37:17.842Z,5.45
2023-04-26T03:39:45.192Z,4.70
2023-04-26T03:42:12.551Z,4.80
2023-04-26T03:44:39.970Z,5.60
2023-04-26T03:47:07.444Z,5.55
2023-04-26T03:49:34.775Z,5.32
2023-04-26T03:52:02.072Z,5.60
2023-04-26T03:54:29.510Z,5.30
2023-04-26T03:56:56.850Z,5.50
2023-04-26T03:59:24.212Z,5.90
2023-04-26T04:01:51.801Z,5.40
2023-04-26T04:04:19.487Z,5.60
2023-04-26T04:06:47.005Z,5.63
2023-04-26T04:09:14.596Z,6.18
2023-04-26T04:11:41.926Z,5.88
2023-04-26T04:14:09.256Z,5.72
2023-04-26T04:16:36.615Z,6.22
2023-04-26T04:19:03.988Z,6.57
2023-04-26T04:21:32.080Z,6.25
2023-04-26T04:23:59.553Z,5.82
2023-04-26T04:26:28.123Z,7.10
2023-04-26T04:28:55.811Z,7.53
2023-04-26T04:31:23.208Z,6.45
2023-04-26T04:33:50.631Z,5.60
2023-04-26T04:36:21.025Z,4.10
2023-04-26T04:38:48.383Z,4.03
2023-04-26T04:41:16.625Z,3.58
2023-04-26T04:43:46.518Z,3.97
2023-04-26T04:46:13.945Z,3.45
2023-04-26T04:48:42.111Z,3.63
2023-04-26T04:51:09.536Z,3.88
2023-04-26T04:53:36.880Z,5.00
2023-04-26T04:56:04.437Z,5.32
2023-04-26T04:58:31.896Z,5.55
2023-04-26T05:01:01.395Z,6.38
2023-04-26T05:03:29.041Z,5.35
2023-04-26T05:05:56.707Z,5.75
2023-04-26T05:08:24.121Z,6.07
2023-04-26T05:10:51.939Z,5.90
2023-04-26T05:13:19.310Z,5.50
2023-04-26T05:15:46.639Z,6.03
2023-04-26T05:18:14.127Z,5.82
2023-04-26T05:20:41.664Z,5.55
2023-04-26T05:23:09.045Z,5.40
2023-04-26T05:25:38.106Z,4.72
2023-04-26T05:28:06.508Z,4.57
2023-04-26T05:30:33.891Z,4.80
2023-04-26T05:33:01.305Z,4.40
2023-04-26T05:35:28.995Z,4.03
2023-04-26T05:37:56.465Z,4.10
2023-04-26T05:40:23.849Z,3.90
2023-04-26T05:42:51.823Z,3.70
2023-04-26T05:45:19.187Z,4.20
2023-04-26T05:47:47.701Z,4.47
2023-04-26T05:50:15.161Z,4.78
2023-04-26T05:52:42.511Z,4.05
2023-04-26T05:55:10.277Z,5.15
2023-04-26T05:57:37.922Z,4.18
2023-04-26T06:00:06.452Z,4.95
2023-04-26T06:02:34.001Z,5.18
2023-04-26T06:05:01.930Z,4.70
2023-04-26T06:07:29.545Z,5.60
2023-04-26T06:09:57.062Z,5.85
2023-04-26T06:12:24.424Z,5.55
2023-04-26T06:14:51.831Z,6.28
2023-04-26T06:17:19.339Z,6.00
2023-04-26T06:19:46.953Z,6.05
2023-04-26T06:22:14.357Z,6.50
2023-04-26T06:24:41.849Z,6.85
2023-04-26T06:27:09.392Z,7.55
2023-04-26T06:29:36.726Z,7.15
2023-04-26T06:32:04.234Z,7.45
2023-04-26T06:34:31.734Z,7.75
2023-04-26T06:36:59.746Z,8.00
2023-04-26T06:39:27.636Z,7.22
2023-04-26T06:41:55.183Z,7.88
2023-04-26T06:44:22.716Z,7.70
2023-04-26T06:46:50.058Z,8.52
2023-04-26T06:49:17.460Z,9.10
2023-04-26T06:51:44.815Z,8.05
2023-04-26T06:54:13.298Z,7.68
2023-04-26T06:56:40.756Z,8.23
2023-04-26T06:59:08.564Z,7.60
2023-04-26T07:01:36.406Z,7.75
2023-04-26T07:04:07.850Z,7.93
2023-04-26T07:06:35.517Z,7.47
2023-04-26T07:09:03.440Z,7.00
2023-04-26T07:11:31.370Z,6.72
2023-04-26T07:13:58.794Z,6.32
2023-04-26T07:16:27.644Z,5.30
2023-04-26T07:18:58.220Z,3.53
2023-04-26T07:21:26.912Z,3.13
2023-04-26T07:23:55.844Z,2.45
2023-04-26T07:26:24.035Z,2.35
2023-04-26T07:28:52.642Z,2.50
2023-04-26T07:31:21.710Z,2.63
2023-04-26T07:33:49.217Z,2.20
2023-04-26T07:36:16.656Z,2.58
2023-04-26T07:38:44.214Z,2.50
2023-04-26T07:41:13.126Z,2.13
2023-04-26T07:43:40.653Z,1.80
2023-04-26T07:46:08.085Z,2.13
2023-04-26T07:48:35.523Z,1.90
2023-04-26T07:51:12.255Z,1.90
2023-04-26T07:53:40.363Z,1.77
2023-04-26T07:56:08.448Z,1.90
2023-04-26T07:58:39.651Z,2.25
2023-04-26T08:01:07.216Z,2.30
2023-04-26T08:03:35.006Z,1.83
2023-04-26T08:06:02.862Z,2.08
2023-04-26T08:08:30.363Z,2.05
2023-04-26T08:10:57.680Z,1.70
2023-04-26T08:13:27.009Z,2.10
2023-04-26T08:15:56.127Z,1.52
2023-04-26T08:18:23.501Z,1.67
2023-04-26T08:20:50.890Z,1.67
2023-04-26T08:23:19.665Z,1.70
2023-04-26T08:25:52.394Z,2.05
2023-04-26T08:28:19.976Z,1.70
2023-04-26T08:30:47.489Z,1.67
2023-04-26T08:33:14.868Z,2.22
2023-04-26T08:35:45.898Z,1.90
2023-04-26T08:38:13.285Z,2.22
2023-04-26T08:40:41.835Z,1.88
2023-04-26T08:43:10.027Z,2.38
2023-04-26T08:45:39.986Z,2.00
2023-04-26T08:48:16.299Z,1.83
2023-04-26T08:50:47.525Z,1.67
2023-04-26T08:53:18.478Z,2.13
2023-04-26T08:55:49.827Z,1.80
2023-04-26T08:58:19.880Z,1.95
2023-04-26T09:00:47.373Z,1.73
2023-04-26T09:03:14.943Z,1.67
2023-04-26T09:05:44.357Z,1.67
2023-04-26T09:08:18.227Z,1.70
2023-04-26T09:10:45.767Z,2.28
2023-04-26T09:13:14.509Z,2.40
2023-04-26T09:15:42.161Z,3.08
2023-04-26T09:18:21.293Z,3.30
2023-04-26T09:21:02.644Z,3.33
2023-04-26T09:23:30.430Z,3.38
2023-04-26T09:26:14.889Z,3.22
2023-04-26T09:28:42.682Z,3.33
2023-04-26T09:31:11.351Z,3.00
2023-04-26T09:33:59.322Z,3.20
2023-04-26T09:36:27.548Z,3.10
2023-04-26T09:38:54.973Z,2.72
2023-04-26T09:41:22.358Z,2.70
2023-04-26T09:43:52.377Z,2.78
2023-04-26T09:46:26.802Z,2.70
2023-04-26T09:49:03.720Z,2.53
2023-04-26T09:51:32.232Z,2.60
2023-04-26T09:53:59.610Z,2.80
2023-04-26T09:56:27.164Z,2.30
2023-04-26T09:58:58.356Z,2.10
2023-04-26T10:01:28.373Z,2.45
2023-04-26T10:04:04.503Z,2.38
2023-04-26T10:06:33.111Z,2.50
2023-04-26T10:09:02.242Z,2.67
2023-04-26T10:11:29.698Z,2.78
2023-04-26T10:13:57.041Z,2.35
2023-04-26T10:16:24.726Z,2.47
2023-04-26T10:18:52.572Z,2.20
2023-04-26T10:21:39.254Z,2.30
2023-04-26T10:24:07.050Z,2.10
2023-04-26T10:26:52.966Z,1.85
2023-04-26T10:29:24.800Z,1.95
2023-04-26T10:32:12.072Z,2.22
2023-04-26T10:34:39.632Z,2.00
2023-04-26T10:37:08.902Z,2.10
2023-04-26T10:39:37.097Z,2.00
2023-04-26T10:42:28.019Z,2.10
2023-04-26T10:44:56.476Z,2.03
2023-04-26T10:47:28.216Z,2.15
2023-04-26T10:50:09.536Z,1.77
2023-04-26T10:53:14.916Z,2.10
2023-04-26T10:55:43.178Z,1.95
2023-04-26T10:58:29.645Z,1.88
2023-04-26T11:01:23.514Z,1.80
2023-04-26T11:03:57.784Z,1.90
2023-04-26T11:06:26.954Z,2.10
2023-04-26T11:08:55.233Z,2.03
2023-04-26T11:11:27.175Z,2.10
2023-04-26T11:13:54.694Z,2.10
2023-04-26T11:16:22.571Z,2.15
2023-04-26T11:18:50.173Z,2.03
2023-04-26T11:21:22.408Z,2.30
2023-04-26T11:23:56.293Z,2.38
2023-04-26T11:26:24.829Z,2.38
2023-04-26T11:28:52.595Z,2.15
2023-04-26T11:31:21.768Z,2.42
2023-04-26T11:33:51.952Z,2.40
2023-04-26T11:36:44.524Z,2.28
2023-04-26T11:39:16.037Z,2.47
2023-04-26T11:41:48.583Z,2.20
2023-04-26T11:44:33.516Z,2.22
2023-04-26T11:47:10.129Z,2.40
2023-04-26T11:49:50.801Z,1.98
2023-04-26T11:52:25.468Z,2.03
2023-04-26T11:58:21.112Z,2.20
2023-04-26T12:01:25.592Z,2.33
2023-04-26T12:10:23.852Z,2.40
2023-04-26T12:12:52.508Z,2.22
2023-04-26T12:15:23.779Z,2.10
2023-04-26T12:17:56.766Z,2.30
2023-04-26T12:20:35.913Z,2.22
2023-04-26T12:23:11.433Z,2.65
2023-04-26T12:25:40.393Z,2.40
2023-04-26T12:28:13.794Z,2.33
2023-04-26T12:30:41.510Z,2.50
2023-04-26T12:33:16.221Z,2.28
2023-04-26T12:35:45.064Z,1.80
2023-04-26T12:38:13.403Z,2.45
2023-04-26T12:40:44.407Z,2.22
2023-04-26T12:43:12.248Z,2.40
2023-04-26T12:45:39.716Z,2.40
2023-04-26T12:48:10.517Z,2.50
2023-04-26T12:50:38.062Z,2.42
2023-04-26T12:53:05.598Z,2.28
2023-04-26T12:55:33.203Z,2.20
2023-04-26T12:58:00.679Z,2.00
2023-04-26T13:00:28.214Z,2.03
2023-04-26T13:03:03.436Z,1.75
2023-04-26T13:05:32.374Z,2.03
2023-04-26T13:08:02.177Z,2.10
2023-04-26T13:10:29.617Z,1.90
2023-04-26T13:12:58.140Z,2.30
2023-04-26T13:15:26.831Z,2.00
2023-04-26T13:17:54.350Z,1.90
2023-04-26T13:20:23.201Z,2.08
2023-04-26T13:22:52.463Z,2.30
2023-04-26T13:25:20.088Z,1.88
2023-04-26T13:27:47.464Z,2.20
2023-04-26T13:30:15.423Z,2.13
2023-04-26T13:32:42.869Z,2.00
2023-04-26T13:35:12.144Z,2.28
2023-04-26T13:37:39.663Z,2.17
2023-04-26T13:40:07.921Z,1.80
2023-04-26T13:42:35.365Z,2.10
2023-04-26T13:45:06.415Z,1.95
2023-04-26T13:47:33.881Z,2.30
2023-04-26T13:50:01.534Z,2.28
2023-04-26T13:52:28.885Z,2.40
2023-04-26T13:54:56.328Z,2.45
2023-04-26T13:57:23.793Z,2.40
2023-04-26T13:59:51.495Z,2.30
2023-04-26T14:02:18.982Z,2.70
2023-04-26T14:04:46.778Z,2.28
2023-04-26T14:07:14.283Z,2.20
2023-04-26T14:09:41.723Z,2.35
2023-04-26T14:12:10.086Z,2.70
2023-04-26T14:14:37.662Z,2.53
2023-04-26T14:17:05.557Z,2.70
2023-04-26T14:19:33.068Z,2.58
2023-04-26T14:22:00.447Z,2.58
2023-04-26T14:24:27.796Z,2.55
2023-04-26T14:26:55.145Z,2.50
2023-04-26T14:29:22.594Z,2.47
2023-04-26T14:31:51.316Z,2.60
2023-04-26T14:34:18.727Z,2.50
2023-04-26T14:36:46.417Z,2.45
2023-04-26T14:39:13.813Z,2.22
2023-04-26T14:41:42.533Z,2.60
2023-04-26T14:44:10.598Z,2.95
2023-04-26T14:46:38.028Z,2.35
2023-04-26T14:49:05.507Z,2.42
2023-04-26T14:51:32.966Z,2.55
2023-04-26T14:54:01.743Z,2.30
2023-04-26T14:56:33.991Z,2.83
2023-04-26T14:59:02.443Z,2.30
2023-04-26T15:01:30.556Z,2.50
2023-04-26T15:04:00.476Z,2.38
2023-04-26T15:06:28.909Z,2.58
2023-04-26T15:08:56.363Z,2.58
2023-04-26T15:11:23.712Z,2.72
2023-04-26T15:13:51.064Z,2.72
2023-04-26T15:16:18.574Z,2.63
2023-04-26T15:18:46.196Z,3.00
2023-04-26T15:21:17.716Z,2.75
2023-04-26T15:23:45.175Z,2.70
2023-04-26T15:26:12.774Z,3.22
2023-04-26T15:28:40.721Z,2.65
2023-04-26T15:31:11.536Z,2.50
2023-04-26T15:33:38.981Z,2.60
2023-04-26T15:36:06.969Z,2.53
2023-04-26T15:38:37.441Z,2.40
2023-04-26T15:41:05.167Z,2.08
2023-04-26T15:43:32.572Z,2.60
2023-04-26T15:45:59.966Z,2.40
2023-04-26T15:48:27.422Z,2.30
2023-04-26T15:50:56.846Z,2.30
2023-04-26T15:53:24.549Z,2.28
2023-04-26T15:55:51.953Z,2.13
2023-04-26T15:58:19.802Z,2.22
2023-04-26T16:00:47.174Z,2.28
2023-04-26T16:03:16.565Z,2.70
2023-04-26T16:05:44.051Z,2.22
2023-04-26T16:08:11.371Z,2.55
2023-04-26T16:10:38.946Z,2.63
2023-04-26T16:13:06.311Z,2.70
2023-04-26T16:15:33.645Z,2.33
2023-04-26T16:18:01.200Z,2.50
2023-04-26T16:20:34.799Z,2.60
2023-04-26T16:23:02.262Z,2.53
2023-04-26T16:25:29.572Z,2.45
2023-04-26T16:28:01.678Z,2.50
2023-04-26T16:30:29.028Z,2.40
2023-04-26T16:32:56.567Z,2.45
2023-04-26T16:35:23.981Z,2.70
2023-04-26T16:37:53.685Z,2.60
2023-04-26T16:40:21.678Z,2.60
2023-04-26T16:42:49.188Z,2.80
2023-04-26T16:45:16.856Z,2.60
2023-04-26T16:47:44.398Z,2.92
2023-04-26T16:50:17.607Z,2.38
2023-04-26T16:52:45.232Z,2.47
2023-04-26T16:55:12.982Z,2.83
2023-04-26T16:57:40.834Z,2.85
2023-04-26T17:00:11.596Z,2.40
2023-04-26T17:02:40.746Z,2.60
2023-04-26T17:05:11.129Z,2.33
2023-04-26T17:07:41.115Z,2.65
2023-04-26T17:10:08.918Z,3.25
2023-04-26T17:12:36.533Z,2.80
2023-04-26T17:15:04.791Z,3.10
2023-04-26T17:17:32.707Z,2.90
2023-04-26T17:20:04.306Z,2.72
2023-04-26T17:22:31.607Z,2.70
2023-04-26T17:24:59.038Z,2.60
2023-04-26T17:27:26.798Z,2.40
2023-04-26T17:29:54.155Z,2.58
2023-04-26T17:32:21.666Z,2.60
2023-04-26T17:34:51.297Z,2.50
2023-04-26T17:37:18.757Z,2.50
2023-04-26T17:39:46.050Z,2.30
2023-04-26T17:42:13.446Z,2.75
2023-04-26T17:44:40.751Z,2.67
2023-04-26T17:47:08.209Z,2.45
2023-04-26T17:49:35.776Z,2.60
2023-04-26T17:52:03.228Z,2.50
2023-04-26T17:54:30.568Z,2.70
2023-04-26T17:56:58.531Z,2.58
2023-04-26T17:59:25.967Z,2.72
2023-04-26T18:01:53.492Z,2.92
2023-04-26T18:04:21.246Z,2.78
2023-04-26T18:06:48.824Z,2.78
2023-04-26T18:09:16.406Z,2.85
2023-04-26T18:11:47.765Z,2.90
2023-04-26T18:14:15.768Z,2.75
2023-04-26T18:16:43.715Z,2.70
2023-04-26T18:19:11.093Z,2.60
2023-04-26T18:21:39.194Z,2.72
2023-04-26T18:24:06.976Z,3.38
2023-04-26T18:26:34.544Z,2.95
2023-04-26T18:29:02.064Z,2.88
2023-04-26T18:31:32.456Z,3.25
2023-04-26T18:34:00.795Z,2.90
2023-04-26T18:36:29.855Z,3.47
2023-04-26T18:38:59.106Z,3.38
2023-04-26T18:41:27.789Z,3.33
2023-04-26T18:43:55.418Z,3.63
2023-04-26T18:46:23.166Z,3.30
2023-04-26T18:48:50.924Z,3.15
2023-04-26T18:51:18.361Z,3.60
2023-04-26T18:53:48.348Z,2.88
2023-04-26T18:56:16.351Z,3.92
2023-04-26T18:58:44.070Z,3.97
2023-04-26T19:01:17.068Z,3.47
2023-04-26T19:03:45.064Z,3.70
2023-04-26T19:06:16.015Z,3.45
2023-04-26T19:08:49.448Z,3.58
2023-04-26T19:11:16.918Z,3.92
2023-04-26T19:13:44.472Z,4.20
2023-04-26T19:16:12.217Z,3.65
2023-04-26T19:18:44.210Z,3.97
2023-04-26T19:21:11.914Z,4.03
2023-04-26T19:23:39.419Z,3.78
2023-04-26T19:26:12.467Z,4.18
2023-04-26T19:28:40.295Z,4.43
2023-04-26T19:31:08.289Z,4.20
2023-04-26T19:33:37.014Z,4.43
2023-04-26T19:36:04.617Z,3.95
2023-04-26T19:38:32.351Z,4.50
2023-04-26T19:41:01.807Z,4.57
2023-04-26T19:43:29.341Z,4.53
2023-04-26T19:45:56.866Z,4.35
2023-04-26T19:48:25.769Z,4.72
2023-04-26T19:50:53.231Z,4.50
2023-04-26T19:53:20.914Z,4.80
2023-04-26T19:55:51.506Z,4.80
2023-04-26T19:58:19.014Z,4.30
2023-04-26T20:00:47.593Z,4.97
2023-04-26T20:03:15.029Z,4.85
2023-04-26T20:05:44.364Z,4.57
2023-04-26T20:08:11.687Z,4.97
2023-04-26T20:10:47.915Z,4.60
2023-04-26T20:13:24.430Z,4.50
2023-04-26T20:15:56.732Z,4.47
2023-04-26T20:18:27.164Z,4.63
2023-04-26T20:21:33.646Z,4.63
2023-04-26T20:27:16.744Z,5.05
2023-04-26T20:29:48.496Z,5.80
2023-04-26T20:32:15.959Z,4.70
2023-04-26T20:34:43.386Z,5.30
2023-04-26T20:37:10.866Z,5.55
2023-04-26T20:39:38.276Z,5.10
2023-04-26T20:42:05.873Z,4.97
2023-04-26T20:44:40.074Z,5.68
2023-04-26T20:47:15.777Z,5.60
2023-04-26T20:52:35.337Z,5.15
2023-04-26T20:55:14.578Z,5.22
2023-04-26T20:57:42.060Z,5.93
2023-04-26T21:00:10.534Z,5.80
2023-04-26T21:02:38.512Z,5.95
2023-04-26T21:05:06.618Z,5.80
2023-04-26T21:07:34.128Z,5.80
2023-04-26T21:10:01.548Z,6.03
2023-04-26T21:12:28.992Z,6.03
2023-04-26T21:14:56.428Z,5.38
2023-04-26T21:17:23.801Z,5.97
2023-04-26T21:19:51.807Z,5.85
2023-04-26T21:22:19.154Z,6.57
2023-04-26T21:24:46.762Z,6.10
2023-04-26T21:27:23.666Z,5.82
2023-04-26T21:29:51.604Z,6.32
2023-04-26T21:32:19.053Z,6.25
2023-04-26T21:34:46.511Z,7.03
2023-04-26T21:37:13.984Z,7.00
2023-04-26T21:39:41.341Z,6.90
2023-04-26T21:42:09.153Z,7.53
2023-04-26T21:44:38.817Z,6.70
2023-04-26T21:47:13.587Z,7.38
2023-04-26T21:49:45.344Z,7.18
2023-04-26T21:52:22.025Z,7.03
2023-04-26T21:54:53.993Z,7.07
2023-04-26T22:00:45.357Z,8.10
2023-04-26T22:03:18.576Z,7.57
2023-04-26T22:05:58.647Z,8.02
2023-04-26T22:08:29.268Z,8.05
2023-04-26T22:11:12.642Z,8.75
2023-04-26T22:13:47.518Z,8.02
2023-04-26T22:16:17.059Z,8.55
2023-04-26T22:18:44.357Z,7.28
2023-04-26T22:21:11.963Z,7.93
2023-04-26T22:23:42.428Z,8.05
2023-04-26T22:26:18.618Z,8.27
2023-04-26T22:31:56.489Z,8.55
2023-04-26T22:34:43.966Z,8.52
2023-04-26T22:37:20.740Z,8.75
2023-04-26T22:39:50.067Z,8.52
2023-04-26T22:42:17.433Z,9.80
2023-04-26T22:44:44.723Z,8.95
2023-04-26T22:47:12.074Z,9.63
2023-04-26T22:49:39.388Z,9.18
2023-04-26T22:52:14.219Z,9.60
2023-04-26T22:54:47.718Z,9.80
2023-04-26T22:57:15.103Z,9.85
2023-04-26T22:59:42.396Z,10.07
2023-04-26T23:02:09.746Z,8.95
2023-04-26T23:04:37.153Z,9.38
2023-04-26T23:07:04.481Z,9.52
2023-04-26T23:09:32.191Z,9.65
2023-04-26T23:11:59.531Z,10.18
2023-04-26T23:14:29.634Z,10.73
2023-04-26T23:17:00.294Z,9.50
2023-04-26T23:19:28.217Z,11.02
2023-04-26T23:21:55.622Z,9.70
2023-04-26T23:24:23.009Z,9.27
2023-04-26T23:26:50.324Z,9.68
2023-04-26T23:29:17.685Z,9.15
2023-04-26T23:31:45.111Z,9.60
2023-04-26T23:34:12.466Z,8.98
2023-04-26T23:36:39.792Z,9.18
2023-04-26T23:39:07.237Z,8.95
2023-04-26T23:41:34.543Z,9.63
2023-04-26T23:44:01.803Z,9.90
2023-04-26T23:46:29.242Z,9.00
2023-04-26T23:48:56.692Z,9.80
2023-04-26T23:51:23.995Z,9.73
2023-04-26T23:53:51.771Z,9.50
2023-04-26T23:56:19.696Z,8.93
2023-04-26T23:58:47.055Z,9.70
